sensor_id;sensor_type;location;lat;lon;timestamp;pressure;altitude;pressure_sealevel;temperature;humidity
61682;BME280;47577;43.610;25.010;2023-07-16T00:02:05;100447.50;;;23.18;74.54
61682;BME280;47577;43.610;25.010;2023-07-16T00:04:30;100445.91;;;23.15;74.19
61682;BME280;47577;43.610;25.010;2023-07-16T00:06:56;100451.59;;;23.12;74.91
61682;BME280;47577;43.610;25.010;2023-07-16T00:09:21;100443.31;;;23.14;74.78
61682;BME280;47577;43.610;25.010;2023-07-16T00:11:47;100450.59;;;23.13;75.27
61682;BME280;47577;43.610;25.010;2023-07-16T00:14:12;100443.66;;;23.21;73.94
61682;BME280;47577;43.610;25.010;2023-07-16T00:16:38;100449.00;;;23.11;74.81
61682;BME280;47577;43.610;25.010;2023-07-16T00:19:03;100447.34;;;22.98;74.84
61682;BME280;47577;43.610;25.010;2023-07-16T00:21:28;100436.75;;;22.95;75.33
61682;BME280;47577;43.610;25.010;2023-07-16T00:23:55;100441.16;;;22.96;75.96
61682;BME280;47577;43.610;25.010;2023-07-16T00:26:21;100443.88;;;22.96;75.80
61682;BME280;47577;43.610;25.010;2023-07-16T00:28:46;100434.88;;;22.96;75.58
61682;BME280;47577;43.610;25.010;2023-07-16T00:31:12;100438.56;;;22.95;75.08
61682;BME280;47577;43.610;25.010;2023-07-16T00:33:37;100435.47;;;22.99;75.64
61682;BME280;47577;43.610;25.010;2023-07-16T00:36:02;100437.00;;;22.92;74.96
61682;BME280;47577;43.610;25.010;2023-07-16T00:38:28;100448.63;;;22.83;75.88
61682;BME280;47577;43.610;25.010;2023-07-16T00:40:53;100443.06;;;22.85;75.73
61682;BME280;47577;43.610;25.010;2023-07-16T00:43:22;100446.16;;;22.80;76.04
61682;BME280;47577;43.610;25.010;2023-07-16T00:45:47;100444.97;;;22.73;75.78
61682;BME280;47577;43.610;25.010;2023-07-16T00:48:13;100433.50;;;22.69;77.05
61682;BME280;47577;43.610;25.010;2023-07-16T00:50:38;100438.81;;;22.71;76.32
61682;BME280;47577;43.610;25.010;2023-07-16T00:53:05;100442.03;;;22.76;76.91
61682;BME280;47577;43.610;25.010;2023-07-16T00:55:30;100443.50;;;22.69;76.72
61682;BME280;47577;43.610;25.010;2023-07-16T00:58:00;100441.22;;;22.85;76.43
61682;BME280;47577;43.610;25.010;2023-07-16T01:00:28;100440.66;;;22.70;76.07
61682;BME280;47577;43.610;25.010;2023-07-16T01:02:53;100440.44;;;22.62;76.50
61682;BME280;47577;43.610;25.010;2023-07-16T01:05:19;100439.22;;;22.66;76.48
61682;BME280;47577;43.610;25.010;2023-07-16T01:07:48;100439.34;;;22.64;77.22
61682;BME280;47577;43.610;25.010;2023-07-16T01:10:17;100441.31;;;22.62;76.75
61682;BME280;47577;43.610;25.010;2023-07-16T01:12:42;100438.81;;;22.71;76.71
61682;BME280;47577;43.610;25.010;2023-07-16T01:15:08;100439.34;;;22.64;77.00
61682;BME280;47577;43.610;25.010;2023-07-16T01:17:34;100436.50;;;22.66;76.29
61682;BME280;47577;43.610;25.010;2023-07-16T01:19:59;100435.94;;;22.51;77.19
61682;BME280;47577;43.610;25.010;2023-07-16T01:25:01;100434.34;;;22.49;77.91
61682;BME280;47577;43.610;25.010;2023-07-16T01:30:02;100430.28;;;22.43;77.74
61682;BME280;47577;43.610;25.010;2023-07-16T01:32:29;100421.28;;;22.54;77.89
61682;BME280;47577;43.610;25.010;2023-07-16T01:34:55;100428.19;;;22.46;77.52
61682;BME280;47577;43.610;25.010;2023-07-16T01:37:22;100426.84;;;22.41;78.63
61682;BME280;47577;43.610;25.010;2023-07-16T01:39:47;100426.34;;;22.47;78.15
61682;BME280;47577;43.610;25.010;2023-07-16T01:42:13;100426.34;;;22.47;78.37
61682;BME280;47577;43.610;25.010;2023-07-16T01:44:38;100430.75;;;22.48;77.61
61682;BME280;47577;43.610;25.010;2023-07-16T01:47:11;100432.13;;;22.54;77.75
61682;BME280;47577;43.610;25.010;2023-07-16T01:49:37;100430.16;;;22.44;77.91
61682;BME280;47577;43.610;25.010;2023-07-16T01:52:03;100437.09;;;22.26;78.46
61682;BME280;47577;43.610;25.010;2023-07-16T01:54:29;100428.97;;;22.26;79.17
61682;BME280;47577;43.610;25.010;2023-07-16T01:56:54;100435.00;;;22.30;79.02
61682;BME280;47577;43.610;25.010;2023-07-16T01:59:20;100429.22;;;22.34;79.03
61682;BME280;47577;43.610;25.010;2023-07-16T02:01:45;100434.03;;;22.31;78.43
61682;BME280;47577;43.610;25.010;2023-07-16T02:04:10;100431.06;;;22.22;79.21
61682;BME280;47577;43.610;25.010;2023-07-16T02:06:36;100433.28;;;22.17;79.63
61682;BME280;47577;43.610;25.010;2023-07-16T02:09:01;100432.19;;;22.31;79.28
61682;BME280;47577;43.610;25.010;2023-07-16T02:11:27;100432.66;;;22.25;79.39
61682;BME280;47577;43.610;25.010;2023-07-16T02:13:53;100435.34;;;22.25;79.36
61682;BME280;47577;43.610;25.010;2023-07-16T02:16:19;100437.84;;;22.17;79.53
61682;BME280;47577;43.610;25.010;2023-07-16T02:18:44;100434.78;;;22.10;79.88
61682;BME280;47577;43.610;25.010;2023-07-16T02:21:10;100430.31;;;22.20;79.20
61682;BME280;47577;43.610;25.010;2023-07-16T02:23:35;100432.91;;;22.22;79.07
61682;BME280;47577;43.610;25.010;2023-07-16T02:26:00;100431.94;;;22.12;79.31
61682;BME280;47577;43.610;25.010;2023-07-16T02:28:26;100433.50;;;22.14;79.87
61682;BME280;47577;43.610;25.010;2023-07-16T02:30:51;100431.56;;;22.16;79.18
61682;BME280;47577;43.610;25.010;2023-07-16T02:33:17;100434.16;;;22.18;79.11
61682;BME280;47577;43.610;25.010;2023-07-16T02:35:46;100430.81;;;22.14;79.08
61682;BME280;47577;43.610;25.010;2023-07-16T02:38:12;100430.59;;;22.06;79.46
61682;BME280;47577;43.610;25.010;2023-07-16T02:40:42;100432.91;;;22.10;80.00
61682;BME280;47577;43.610;25.010;2023-07-16T02:43:09;100437.22;;;22.24;79.45
61682;BME280;47577;43.610;25.010;2023-07-16T02:45:34;100435.50;;;22.12;79.75
61682;BME280;47577;43.610;25.010;2023-07-16T02:48:00;100438.56;;;22.07;79.34
61682;BME280;47577;43.610;25.010;2023-07-16T02:50:25;100449.66;;;22.04;79.82
61682;BME280;47577;43.610;25.010;2023-07-16T02:52:51;100448.56;;;21.96;80.13
61682;BME280;47577;43.610;25.010;2023-07-16T02:55:16;100445.00;;;21.95;80.91
61682;BME280;47577;43.610;25.010;2023-07-16T02:57:41;100447.09;;;21.91;80.80
61682;BME280;47577;43.610;25.010;2023-07-16T03:00:07;100445.63;;;21.99;80.67
61682;BME280;47577;43.610;25.010;2023-07-16T03:02:33;100450.78;;;22.13;80.55
61682;BME280;47577;43.610;25.010;2023-07-16T03:04:58;100454.44;;;22.12;79.93
61682;BME280;47577;43.610;25.010;2023-07-16T03:07:24;100453.72;;;21.99;81.05
61682;BME280;47577;43.610;25.010;2023-07-16T03:09:49;100459.41;;;21.96;80.73
61682;BME280;47577;43.610;25.010;2023-07-16T03:12:15;100458.53;;;21.95;81.77
61682;BME280;47577;43.610;25.010;2023-07-16T03:14:40;100451.50;;;22.15;81.03
61682;BME280;47577;43.610;25.010;2023-07-16T03:17:06;100457.13;;;22.23;80.31
61682;BME280;47577;43.610;25.010;2023-07-16T03:19:32;100458.88;;;22.13;80.48
61682;BME280;47577;43.610;25.010;2023-07-16T03:21:57;100457.78;;;22.04;81.08
61682;BME280;47577;43.610;25.010;2023-07-16T03:24:22;100455.94;;;22.05;81.29
61682;BME280;47577;43.610;25.010;2023-07-16T03:26:48;100464.06;;;22.05;81.57
61682;BME280;47577;43.610;25.010;2023-07-16T03:29:13;100459.13;;;22.10;81.77
61682;BME280;47577;43.610;25.010;2023-07-16T03:31:39;100459.25;;;22.20;81.26
61682;BME280;47577;43.610;25.010;2023-07-16T03:34:04;100455.56;;;22.32;80.69
61682;BME280;47577;43.610;25.010;2023-07-16T03:36:30;100460.34;;;22.40;81.01
61682;BME280;47577;43.610;25.010;2023-07-16T03:38:55;100463.94;;;22.40;80.77
61682;BME280;47577;43.610;25.010;2023-07-16T03:41:20;100470.66;;;22.46;80.99
61682;BME280;47577;43.610;25.010;2023-07-16T03:43:46;100463.88;;;22.63;80.26
61682;BME280;47577;43.610;25.010;2023-07-16T03:46:11;100466.53;;;22.74;79.69
61682;BME280;47577;43.610;25.010;2023-07-16T03:48:37;100464.81;;;22.73;80.15
61682;BME280;47577;43.610;25.010;2023-07-16T03:51:02;100469.25;;;22.74;81.09
61682;BME280;47577;43.610;25.010;2023-07-16T03:53:28;100471.78;;;22.87;80.22
61682;BME280;47577;43.610;25.010;2023-07-16T03:55:53;100474.56;;;22.97;79.84
61682;BME280;47577;43.610;25.010;2023-07-16T03:58:18;100475.03;;;23.02;80.29
61682;BME280;47577;43.610;25.010;2023-07-16T04:00:44;100486.97;;;23.11;80.82
61682;BME280;47577;43.610;25.010;2023-07-16T04:03:09;100484.19;;;23.22;79.86
61682;BME280;47577;43.610;25.010;2023-07-16T04:05:35;100498.09;;;23.50;79.42
61682;BME280;47577;43.610;25.010;2023-07-16T04:08:00;100489.09;;;23.49;79.39
61682;BME280;47577;43.610;25.010;2023-07-16T04:10:26;100482.25;;;23.55;79.09
61682;BME280;47577;43.610;25.010;2023-07-16T04:12:51;100486.50;;;23.69;79.75
61682;BME280;47577;43.610;25.010;2023-07-16T04:15:17;100483.31;;;23.85;80.09
61682;BME280;47577;43.610;25.010;2023-07-16T04:17:42;100483.81;;;24.00;80.64
61682;BME280;47577;43.610;25.010;2023-07-16T04:20:08;100483.31;;;24.16;80.29
61682;BME280;47577;43.610;25.010;2023-07-16T04:22:34;100488.34;;;24.30;79.48
61682;BME280;47577;43.610;25.010;2023-07-16T04:25:00;100494.25;;;24.45;78.52
61682;BME280;47577;43.610;25.010;2023-07-16T04:27:25;100495.44;;;24.62;77.36
61682;BME280;47577;43.610;25.010;2023-07-16T04:29:50;100494.63;;;24.81;77.29
61682;BME280;47577;43.610;25.010;2023-07-16T04:32:16;100490.63;;;25.05;77.58
61682;BME280;47577;43.610;25.010;2023-07-16T04:34:41;100489.91;;;25.22;75.85
61682;BME280;47577;43.610;25.010;2023-07-16T04:37:07;100492.91;;;25.39;75.29
61682;BME280;47577;43.610;25.010;2023-07-16T04:39:32;100493.16;;;25.55;75.53
61682;BME280;47577;43.610;25.010;2023-07-16T04:41:57;100493.44;;;25.62;74.89
61682;BME280;47577;43.610;25.010;2023-07-16T04:44:23;100499.41;;;25.75;73.68
61682;BME280;47577;43.610;25.010;2023-07-16T04:46:48;100492.09;;;25.85;72.14
61682;BME280;47577;43.610;25.010;2023-07-16T04:49:14;100497.78;;;26.02;72.06
61682;BME280;47577;43.610;25.010;2023-07-16T04:51:39;100495.72;;;26.14;71.97
61682;BME280;47577;43.610;25.010;2023-07-16T04:54:06;100495.66;;;26.23;71.93
61682;BME280;47577;43.610;25.010;2023-07-16T04:56:31;100500.59;;;26.38;70.23
61682;BME280;47577;43.610;25.010;2023-07-16T04:58:57;100500.09;;;26.52;71.68
61682;BME280;47577;43.610;25.010;2023-07-16T05:01:22;100497.59;;;26.59;70.50
61682;BME280;47577;43.610;25.010;2023-07-16T05:03:47;100499.28;;;26.70;70.02
61682;BME280;47577;43.610;25.010;2023-07-16T05:06:13;100498.03;;;26.82;70.47
61682;BME280;47577;43.610;25.010;2023-07-16T05:08:38;100505.84;;;26.95;70.44
61682;BME280;47577;43.610;25.010;2023-07-16T05:11:04;100506.78;;;27.04;70.62
61682;BME280;47577;43.610;25.010;2023-07-16T05:13:29;100505.97;;;27.11;70.35
61682;BME280;47577;43.610;25.010;2023-07-16T05:15:54;100501.47;;;27.20;69.28
61682;BME280;47577;43.610;25.010;2023-07-16T05:18:20;100507.56;;;27.32;67.52
61682;BME280;47577;43.610;25.010;2023-07-16T05:20:48;100507.63;;;27.40;68.39
61682;BME280;47577;43.610;25.010;2023-07-16T05:23:14;100513.94;;;27.41;66.98
61682;BME280;47577;43.610;25.010;2023-07-16T05:25:45;100518.44;;;27.50;67.75
61682;BME280;47577;43.610;25.010;2023-07-16T05:28:10;100514.59;;;27.61;67.61
61682;BME280;47577;43.610;25.010;2023-07-16T05:30:36;100508.28;;;27.60;67.35
61682;BME280;47577;43.610;25.010;2023-07-16T05:33:01;100509.16;;;27.61;67.34
61682;BME280;47577;43.610;25.010;2023-07-16T05:35:26;100507.41;;;27.60;67.72
61682;BME280;47577;43.610;25.010;2023-07-16T05:37:52;100520.53;;;27.56;68.42
61682;BME280;47577;43.610;25.010;2023-07-16T05:40:17;100521.53;;;27.55;67.52
61682;BME280;47577;43.610;25.010;2023-07-16T05:42:43;100525.56;;;27.43;67.50
61682;BME280;47577;43.610;25.010;2023-07-16T05:45:08;100524.53;;;27.44;67.90
61682;BME280;47577;43.610;25.010;2023-07-16T05:47:34;100525.88;;;27.40;68.70
61682;BME280;47577;43.610;25.010;2023-07-16T05:49:59;100523.59;;;27.53;68.51
61682;BME280;47577;43.610;25.010;2023-07-16T05:52:25;100525.75;;;27.67;67.42
61682;BME280;47577;43.610;25.010;2023-07-16T05:54:51;100523.06;;;27.76;68.29
61682;BME280;47577;43.610;25.010;2023-07-16T05:57:16;100527.72;;;27.83;67.81
61682;BME280;47577;43.610;25.010;2023-07-16T05:59:41;100535.22;;;27.81;66.75
61682;BME280;47577;43.610;25.010;2023-07-16T06:02:07;100533.50;;;27.80;66.64
61682;BME280;47577;43.610;25.010;2023-07-16T06:04:32;100533.06;;;27.93;66.75
61682;BME280;47577;43.610;25.010;2023-07-16T06:06:58;100539.63;;;28.00;66.48
61682;BME280;47577;43.610;25.010;2023-07-16T06:09:23;100540.22;;;28.12;66.10
61682;BME280;47577;43.610;25.010;2023-07-16T06:11:49;100539.38;;;28.20;65.56
61682;BME280;47577;43.610;25.010;2023-07-16T06:14:14;100544.56;;;28.31;65.05
61682;BME280;47577;43.610;25.010;2023-07-16T06:16:40;100536.56;;;28.38;64.49
61682;BME280;47577;43.610;25.010;2023-07-16T06:19:05;100549.25;;;28.47;65.20
61682;BME280;47577;43.610;25.010;2023-07-16T06:21:31;100545.91;;;28.61;64.66
61682;BME280;47577;43.610;25.010;2023-07-16T06:23:56;100545.44;;;28.74;66.64
61682;BME280;47577;43.610;25.010;2023-07-16T06:26:22;100542.72;;;28.83;65.53
61682;BME280;47577;43.610;25.010;2023-07-16T06:28:47;100547.19;;;28.92;62.72
61682;BME280;47577;43.610;25.010;2023-07-16T06:31:16;100542.75;;;28.99;62.64
61682;BME280;47577;43.610;25.010;2023-07-16T06:33:41;100536.25;;;29.00;63.67
61682;BME280;47577;43.610;25.010;2023-07-16T06:36:07;100550.13;;;29.07;62.90
61682;BME280;47577;43.610;25.010;2023-07-16T06:38:32;100546.38;;;29.16;63.59
61682;BME280;47577;43.610;25.010;2023-07-16T06:40:58;100540.94;;;29.24;62.08
61682;BME280;47577;43.610;25.010;2023-07-16T06:43:23;100543.00;;;29.39;62.46
61682;BME280;47577;43.610;25.010;2023-07-16T06:45:49;100542.66;;;29.50;61.57
61682;BME280;47577;43.610;25.010;2023-07-16T06:48:16;100539.00;;;29.66;59.79
61682;BME280;47577;43.610;25.010;2023-07-16T06:50:41;100535.75;;;29.70;60.95
61682;BME280;47577;43.610;25.010;2023-07-16T06:53:06;100536.81;;;29.69;59.94
61682;BME280;47577;43.610;25.010;2023-07-16T06:55:32;100535.91;;;29.77;62.04
61682;BME280;47577;43.610;25.010;2023-07-16T06:57:57;100542.28;;;29.78;58.68
61682;BME280;47577;43.610;25.010;2023-07-16T07:00:23;100530.66;;;29.84;59.97
61682;BME280;47577;43.610;25.010;2023-07-16T07:02:48;100538.84;;;29.92;59.65
61682;BME280;47577;43.610;25.010;2023-07-16T07:05:14;100545.50;;;29.98;59.41
61682;BME280;47577;43.610;25.010;2023-07-16T07:07:39;100545.31;;;30.07;60.52
61682;BME280;47577;43.610;25.010;2023-07-16T07:10:05;100547.50;;;30.20;59.25
61682;BME280;47577;43.610;25.010;2023-07-16T07:12:30;100543.16;;;30.34;59.77
61682;BME280;47577;43.610;25.010;2023-07-16T07:15:02;100544.69;;;30.37;57.18
61682;BME280;47577;43.610;25.010;2023-07-16T07:17:27;100540.56;;;30.49;59.02
61682;BME280;47577;43.610;25.010;2023-07-16T07:19:53;100543.13;;;30.51;58.23
61682;BME280;47577;43.610;25.010;2023-07-16T07:22:18;100544.97;;;30.58;57.91
61682;BME280;47577;43.610;25.010;2023-07-16T07:24:44;100544.94;;;30.67;58.44
61682;BME280;47577;43.610;25.010;2023-07-16T07:27:09;100541.78;;;30.78;59.02
61682;BME280;47577;43.610;25.010;2023-07-16T07:29:35;100540.91;;;30.77;55.50
61682;BME280;47577;43.610;25.010;2023-07-16T07:32:00;100534.88;;;30.82;56.51
61682;BME280;47577;43.610;25.010;2023-07-16T07:34:26;100535.84;;;30.97;57.68
61682;BME280;47577;43.610;25.010;2023-07-16T07:36:51;100540.22;;;31.07;56.73
61682;BME280;47577;43.610;25.010;2023-07-16T07:39:16;100536.94;;;31.11;57.62
61682;BME280;47577;43.610;25.010;2023-07-16T07:41:42;100548.38;;;31.23;54.15
61682;BME280;47577;43.610;25.010;2023-07-16T07:44:08;100539.44;;;31.21;57.05
61682;BME280;47577;43.610;25.010;2023-07-16T07:46:33;100543.34;;;31.27;59.77
61682;BME280;47577;43.610;25.010;2023-07-16T07:48:59;100542.53;;;31.41;56.67
61682;BME280;47577;43.610;25.010;2023-07-16T07:51:24;100539.13;;;31.62;56.20
61682;BME280;47577;43.610;25.010;2023-07-16T07:53:49;100539.69;;;31.73;56.30
61682;BME280;47577;43.610;25.010;2023-07-16T07:56:15;100534.31;;;31.94;55.48
61682;BME280;47577;43.610;25.010;2023-07-16T07:58:40;100535.66;;;31.98;54.50
61682;BME280;47577;43.610;25.010;2023-07-16T08:01:06;100531.28;;;31.89;52.97
61682;BME280;47577;43.610;25.010;2023-07-16T08:03:32;100524.38;;;31.78;54.44
61682;BME280;47577;43.610;25.010;2023-07-16T08:05:57;100530.25;;;31.75;54.50
61682;BME280;47577;43.610;25.010;2023-07-16T08:08:22;100518.09;;;31.84;57.25
61682;BME280;47577;43.610;25.010;2023-07-16T08:10:48;100522.13;;;32.12;58.81
61682;BME280;47577;43.610;25.010;2023-07-16T08:13:13;100528.78;;;32.17;51.70
61682;BME280;47577;43.610;25.010;2023-07-16T08:15:39;100524.09;;;32.33;51.81
61682;BME280;47577;43.610;25.010;2023-07-16T08:18:04;100529.00;;;32.52;52.76
61682;BME280;47577;43.610;25.010;2023-07-16T08:20:29;100530.50;;;32.70;53.21
61682;BME280;47577;43.610;25.010;2023-07-16T08:22:55;100535.31;;;32.83;52.33
61682;BME280;47577;43.610;25.010;2023-07-16T08:25:21;100531.28;;;33.00;53.27
61682;BME280;47577;43.610;25.010;2023-07-16T08:27:46;100529.81;;;33.04;51.35
61682;BME280;47577;43.610;25.010;2023-07-16T08:30:12;100537.38;;;33.17;51.70
61682;BME280;47577;43.610;25.010;2023-07-16T08:32:37;100539.81;;;33.27;51.82
61682;BME280;47577;43.610;25.010;2023-07-16T08:35:03;100538.13;;;33.26;51.83
61682;BME280;47577;43.610;25.010;2023-07-16T08:37:28;100537.78;;;33.36;52.69
61682;BME280;47577;43.610;25.010;2023-07-16T08:39:54;100538.47;;;33.44;49.66
61682;BME280;47577;43.610;25.010;2023-07-16T08:42:19;100535.34;;;33.47;50.28
61682;BME280;47577;43.610;25.010;2023-07-16T08:44:47;100534.59;;;33.60;52.75
61682;BME280;47577;43.610;25.010;2023-07-16T08:47:13;100527.09;;;33.76;50.15
61682;BME280;47577;43.610;25.010;2023-07-16T08:49:39;100533.91;;;33.80;49.95
61682;BME280;47577;43.610;25.010;2023-07-16T08:52:06;100535.22;;;33.84;48.40
61682;BME280;47577;43.610;25.010;2023-07-16T08:54:31;100529.00;;;33.75;50.54
61682;BME280;47577;43.610;25.010;2023-07-16T08:56:57;100535.31;;;33.97;49.13
61682;BME280;47577;43.610;25.010;2023-07-16T08:59:23;100528.34;;;34.08;49.83
61682;BME280;47577;43.610;25.010;2023-07-16T09:01:49;100527.94;;;34.11;50.33
61682;BME280;47577;43.610;25.010;2023-07-16T09:04:15;100527.41;;;34.22;50.51
61682;BME280;47577;43.610;25.010;2023-07-16T09:06:40;100522.38;;;34.33;49.84
61682;BME280;47577;43.610;25.010;2023-07-16T09:09:06;100520.34;;;34.13;45.98
61682;BME280;47577;43.610;25.010;2023-07-16T09:11:32;100525.00;;;34.19;49.26
61682;BME280;47577;43.610;25.010;2023-07-16T09:14:01;100519.22;;;34.42;47.73
61682;BME280;47577;43.610;25.010;2023-07-16T09:16:26;100518.63;;;34.47;47.63
61682;BME280;47577;43.610;25.010;2023-07-16T09:18:52;100513.50;;;34.44;48.00
61682;BME280;47577;43.610;25.010;2023-07-16T09:21:17;100512.91;;;34.55;48.32
61682;BME280;47577;43.610;25.010;2023-07-16T09:23:44;100516.81;;;34.81;46.60
61682;BME280;47577;43.610;25.010;2023-07-16T09:26:09;100521.53;;;34.94;48.98
61682;BME280;47577;43.610;25.010;2023-07-16T09:28:34;100520.91;;;35.05;46.81
61682;BME280;47577;43.610;25.010;2023-07-16T09:31:04;100514.31;;;35.00;44.97
61682;BME280;47577;43.610;25.010;2023-07-16T09:33:31;100521.56;;;35.21;47.08
61682;BME280;47577;43.610;25.010;2023-07-16T09:35:57;100521.38;;;35.36;45.10
61682;BME280;47577;43.610;25.010;2023-07-16T09:38:22;100518.41;;;35.50;45.58
61682;BME280;47577;43.610;25.010;2023-07-16T09:40:49;100514.16;;;35.55;43.11
61682;BME280;47577;43.610;25.010;2023-07-16T09:43:16;100511.19;;;35.56;44.64
61682;BME280;47577;43.610;25.010;2023-07-16T09:45:42;100499.91;;;35.71;42.08
61682;BME280;47577;43.610;25.010;2023-07-16T09:48:07;100505.03;;;35.74;40.69
61682;BME280;47577;43.610;25.010;2023-07-16T09:50:34;100505.22;;;35.86;43.40
61682;BME280;47577;43.610;25.010;2023-07-16T09:53:00;100494.97;;;36.00;42.73
61682;BME280;47577;43.610;25.010;2023-07-16T09:55:28;100496.66;;;36.08;42.55
61682;BME280;47577;43.610;25.010;2023-07-16T09:57:56;100500.09;;;35.90;39.86
61682;BME280;47577;43.610;25.010;2023-07-16T10:00:22;100497.34;;;35.83;37.58
61682;BME280;47577;43.610;25.010;2023-07-16T10:02:48;100499.06;;;35.84;39.40
61682;BME280;47577;43.610;25.010;2023-07-16T10:05:15;100492.63;;;35.97;39.71
61682;BME280;47577;43.610;25.010;2023-07-16T10:07:41;100489.00;;;36.03;37.93
61682;BME280;47577;43.610;25.010;2023-07-16T10:10:07;100474.50;;;36.14;40.39
61682;BME280;47577;43.610;25.010;2023-07-16T10:12:34;100483.34;;;36.36;41.36
61682;BME280;47577;43.610;25.010;2023-07-16T10:15:01;100482.03;;;36.46;40.84
61682;BME280;47577;43.610;25.010;2023-07-16T10:17:29;100487.31;;;36.54;40.38
61682;BME280;47577;43.610;25.010;2023-07-16T10:22:47;100477.25;;;36.66;37.81
61682;BME280;47577;43.610;25.010;2023-07-16T10:27:44;100479.28;;;36.84;37.05
61682;BME280;47577;43.610;25.010;2023-07-16T10:30:10;100472.69;;;36.85;34.51
61682;BME280;47577;43.610;25.010;2023-07-16T10:32:36;100468.84;;;36.86;38.54
61682;BME280;47577;43.610;25.010;2023-07-16T10:35:01;100470.66;;;36.99;34.73
61682;BME280;47577;43.610;25.010;2023-07-16T10:37:27;100465.06;;;37.06;35.59
61682;BME280;47577;43.610;25.010;2023-07-16T10:39:54;100465.16;;;37.24;33.47
61682;BME280;47577;43.610;25.010;2023-07-16T10:42:20;100471.19;;;37.40;33.69
61682;BME280;47577;43.610;25.010;2023-07-16T10:44:54;100465.66;;;37.40;36.08
61682;BME280;47577;43.610;25.010;2023-07-16T10:47:23;100463.84;;;37.52;35.31
61682;BME280;47577;43.610;25.010;2023-07-16T10:49:49;100462.44;;;37.61;32.96
61682;BME280;47577;43.610;25.010;2023-07-16T10:52:17;100461.16;;;37.64;32.11
61682;BME280;47577;43.610;25.010;2023-07-16T10:54:42;100465.22;;;37.68;33.03
61682;BME280;47577;43.610;25.010;2023-07-16T10:57:08;100455.19;;;37.85;34.56
61682;BME280;47577;43.610;25.010;2023-07-16T10:59:33;100459.19;;;37.90;33.57
61682;BME280;47577;43.610;25.010;2023-07-16T11:01:58;100465.03;;;38.00;32.93
61682;BME280;47577;43.610;25.010;2023-07-16T11:04:24;100448.94;;;37.90;33.05
61682;BME280;47577;43.610;25.010;2023-07-16T11:06:50;100450.34;;;37.81;34.58
61682;BME280;47577;43.610;25.010;2023-07-16T11:09:15;100453.34;;;37.79;34.16
61682;BME280;47577;43.610;25.010;2023-07-16T11:11:40;100446.63;;;37.87;32.93
61682;BME280;47577;43.610;25.010;2023-07-16T11:14:06;100443.47;;;37.83;36.17
61682;BME280;47577;43.610;25.010;2023-07-16T11:16:38;100444.72;;;37.88;34.77
61682;BME280;47577;43.610;25.010;2023-07-16T11:19:04;100442.84;;;38.00;33.75
61682;BME280;47577;43.610;25.010;2023-07-16T11:21:30;100447.47;;;38.06;34.31
61682;BME280;47577;43.610;25.010;2023-07-16T11:23:56;100438.41;;;38.17;34.63
61682;BME280;47577;43.610;25.010;2023-07-16T11:26:21;100441.91;;;38.06;32.23
61682;BME280;47577;43.610;25.010;2023-07-16T11:28:49;100435.28;;;38.26;34.43
61682;BME280;47577;43.610;25.010;2023-07-16T11:31:15;100438.44;;;38.29;36.15
61682;BME280;47577;43.610;25.010;2023-07-16T11:33:44;100431.38;;;38.45;35.15
61682;BME280;47577;43.610;25.010;2023-07-16T11:36:10;100427.88;;;38.38;34.58
61682;BME280;47577;43.610;25.010;2023-07-16T11:38:36;100428.81;;;38.32;34.75
61682;BME280;47577;43.610;25.010;2023-07-16T11:41:02;100427.78;;;38.45;35.56
61682;BME280;47577;43.610;25.010;2023-07-16T11:43:27;100431.63;;;38.62;35.10
61682;BME280;47577;43.610;25.010;2023-07-16T11:45:52;100422.13;;;38.82;36.18
61682;BME280;47577;43.610;25.010;2023-07-16T11:48:18;100425.59;;;38.47;33.17
61682;BME280;47577;43.610;25.010;2023-07-16T11:50:43;100437.31;;;38.49;36.19
61682;BME280;47577;43.610;25.010;2023-07-16T11:53:10;100421.44;;;38.37;33.70
61682;BME280;47577;43.610;25.010;2023-07-16T11:55:36;100424.56;;;38.29;34.24
61682;BME280;47577;43.610;25.010;2023-07-16T11:58:01;100427.06;;;38.49;34.52
61682;BME280;47577;43.610;25.010;2023-07-16T12:00:28;100421.75;;;38.48;33.04
61682;BME280;47577;43.610;25.010;2023-07-16T12:02:53;100424.13;;;38.74;34.18
61682;BME280;47577;43.610;25.010;2023-07-16T12:05:19;100423.19;;;38.69;32.20
61682;BME280;47577;43.610;25.010;2023-07-16T12:07:45;100420.63;;;38.67;35.50
61682;BME280;47577;43.610;25.010;2023-07-16T12:10:10;100424.66;;;38.83;33.64
61682;BME280;47577;43.610;25.010;2023-07-16T12:12:36;100419.06;;;38.71;34.92
61682;BME280;47577;43.610;25.010;2023-07-16T12:15:06;100413.69;;;38.88;31.66
61682;BME280;47577;43.610;25.010;2023-07-16T12:17:32;100412.09;;;38.81;33.26
61682;BME280;47577;43.610;25.010;2023-07-16T12:19:57;100416.44;;;38.88;32.38
61682;BME280;47577;43.610;25.010;2023-07-16T12:22:23;100414.03;;;38.80;30.05
61682;BME280;47577;43.610;25.010;2023-07-16T12:24:49;100407.75;;;38.85;33.75
61682;BME280;47577;43.610;25.010;2023-07-16T12:27:15;100404.38;;;38.94;32.13
61682;BME280;47577;43.610;25.010;2023-07-16T12:29:41;100417.28;;;38.77;32.25
61682;BME280;47577;43.610;25.010;2023-07-16T12:32:07;100411.94;;;38.45;32.19
61682;BME280;47577;43.610;25.010;2023-07-16T12:34:33;100413.28;;;38.73;34.31
61682;BME280;47577;43.610;25.010;2023-07-16T12:36:58;100403.91;;;38.98;31.56
61682;BME280;47577;43.610;25.010;2023-07-16T12:39:24;100413.16;;;38.80;33.87
61682;BME280;47577;43.610;25.010;2023-07-16T12:41:49;100411.75;;;38.58;31.82
61682;BME280;47577;43.610;25.010;2023-07-16T12:44:15;100408.25;;;38.51;32.31